Time;durP1;ratioP1;P1;durP2;ratioP2;P2;SDS_P1;SDS_P2;PMS_P1;PMS_P2;Temp;Humidity;BMP_temperature;BMP_pressure;BME280_temperature;BME280_humidity;BME280_pressure;Samples;Min_cycle;Max_cycle;Signal;HPM_P1;HPM_P2
2023/08/06 00:00:08;;;;;;;3.27;3.07;;;21.00;96.40;;;;;;4975733;28;20986;-76
2023/08/06 00:02:34;;;;;;;3.53;3.23;;;21.00;96.40;;;;;;5009213;28;20837;-76
2023/08/06 00:05:01;;;;;;;3.90;3.37;;;21.00;96.40;;;;;;5008847;28;20416;-76
2023/08/06 00:07:30;;;;;;;3.83;3.53;;;21.00;96.40;;;;;;5005226;28;20450;-76
2023/08/06 00:09:55;;;;;;;3.67;3.37;;;21.00;96.40;;;;;;4999582;28;20451;-76
2023/08/06 00:12:26;;;;;;;3.10;2.90;;;20.90;96.40;;;;;;5008765;28;20427;-76
2023/08/06 00:14:55;;;;;;;3.43;3.13;;;20.90;96.40;;;;;;5009201;28;20407;-76
2023/08/06 00:17:25;;;;;;;4.40;3.07;;;20.90;96.50;;;;;;5006149;28;20442;-76
2023/08/06 00:19:51;;;;;;;4.40;3.30;;;20.90;96.40;;;;;;5000960;28;21003;-76
2023/08/06 00:22:20;;;;;;;3.30;3.00;;;20.90;96.50;;;;;;4991571;28;20443;-76
2023/08/06 00:24:48;;;;;;;4.00;3.20;;;20.90;96.50;;;;;;5008802;28;20459;-76
2023/08/06 00:27:17;;;;;;;3.73;3.30;;;20.90;96.40;;;;;;4996908;28;20450;-76
2023/08/06 00:29:42;;;;;;;3.73;3.33;;;20.90;96.50;;;;;;4995882;28;20458;-76
2023/08/06 00:32:08;;;;;;;3.93;3.63;;;20.90;96.50;;;;;;5010812;28;20482;-76
2023/08/06 00:34:35;;;;;;;3.73;3.43;;;20.90;96.50;;;;;;4994658;28;20444;-76
2023/08/06 00:37:02;;;;;;;3.60;3.30;;;20.90;96.50;;;;;;4991448;28;20451;-76
2023/08/06 00:39:30;;;;;;;3.30;3.00;;;20.90;96.50;;;;;;4974582;28;20405;-75
2023/08/06 00:41:56;;;;;;;3.70;3.40;;;20.90;96.50;;;;;;4974590;28;20438;-76
2023/08/06 00:44:22;;;;;;;5.40;3.23;;;20.90;96.50;;;;;;4988268;28;20433;-76
2023/08/06 00:46:48;;;;;;;3.37;3.07;;;20.80;96.50;;;;;;5007923;28;20465;-76
2023/08/06 00:49:16;;;;;;;3.30;3.10;;;20.80;96.50;;;;;;5010381;28;20524;-76
2023/08/06 00:51:46;;;;;;;3.37;2.97;;;20.80;96.50;;;;;;4994302;28;20792;-76
2023/08/06 00:54:15;;;;;;;3.23;2.80;;;20.80;96.50;;;;;;5000096;28;20537;-76
2023/08/06 00:56:44;;;;;;;3.97;3.63;;;20.80;96.50;;;;;;4986760;28;20961;-76
2023/08/06 00:59:11;;;;;;;3.87;3.17;;;20.80;96.50;;;;;;4958871;28;20457;-76
2023/08/06 01:01:42;;;;;;;4.30;3.90;;;20.80;96.90;;;;;;4991056;28;20450;-76
2023/08/06 01:04:08;;;;;;;3.27;2.97;;;20.80;96.60;;;;;;4992687;28;20864;-76
2023/08/06 01:06:56;;;;;;;3.90;3.50;;;20.80;96.60;;;;;;4978051;28;20896;-76
2023/08/06 01:09:43;;;;;;;3.70;3.40;;;20.80;96.60;;;;;;5012060;28;20419;-75
2023/08/06 01:12:30;;;;;;;3.37;3.13;;;20.80;96.60;;;;;;4978225;28;20902;-76
2023/08/06 01:15:08;;;;;;;3.30;3.00;;;20.80;96.60;;;;;;5025800;28;21031;-74
2023/08/06 01:17:37;;;;;;;3.47;3.17;;;20.80;96.60;;;;;;4978725;28;20511;-74
2023/08/06 01:20:04;;;;;;;3.70;3.40;;;20.80;96.60;;;;;;4978133;28;20449;-76
2023/08/06 01:22:30;;;;;;;4.27;3.33;;;20.70;96.50;;;;;;4978449;28;20450;-76
2023/08/06 01:25:01;;;;;;;3.33;3.00;;;20.70;96.50;;;;;;4979284;28;20971;-76
2023/08/06 01:27:55;;;;;;;3.40;3.00;;;20.70;96.50;;;;;;5012414;28;20459;-76
2023/08/06 01:30:35;;;;;;;3.30;3.00;;;20.70;96.50;;;;;;5013689;28;20501;-76
2023/08/06 01:33:07;;;;;;;4.10;3.70;;;20.70;96.50;;;;;;5001383;28;20444;-76
2023/08/06 01:35:38;;;;;;;3.90;3.60;;;20.70;96.50;;;;;;5029839;28;20467;-76
2023/08/06 01:38:03;;;;;;;4.40;4.00;;;20.70;96.50;;;;;;5013445;28;20419;-76
2023/08/06 01:40:31;;;;;;;3.27;3.00;;;20.70;96.50;;;;;;5013176;28;20442;-76
2023/08/06 01:43:00;;;;;;;4.33;3.10;;;20.70;96.50;;;;;;5013102;28;20418;-76
2023/08/06 01:45:26;;;;;;;3.33;3.03;;;20.70;96.80;;;;;;5012338;28;20451;-76
2023/08/06 01:47:52;;;;;;;2.80;2.60;;;20.70;96.40;;;;;;4977850;28;20170;-76
2023/08/06 01:50:18;;;;;;;3.33;3.10;;;20.70;96.40;;;;;;4993478;28;20621;-76
2023/08/06 01:52:48;;;;;;;3.40;3.10;;;20.70;96.50;;;;;;4991143;28;20167;-76
2023/08/06 01:55:14;;;;;;;4.27;3.30;;;20.70;96.40;;;;;;5029455;28;21186;-76
2023/08/06 01:57:40;;;;;;;4.30;3.43;;;20.60;96.40;;;;;;5012540;28;20568;-76
2023/08/06 02:00:07;;;;;;;3.73;3.40;;;20.60;96.40;;;;;;5012694;28;20443;-76
2023/08/06 02:02:41;;;;;;;3.03;2.73;;;20.60;96.40;;;;;;5011255;28;20487;-76
2023/08/06 02:05:07;;;;;;;3.53;3.23;;;20.60;96.40;;;;;;5010645;28;20420;-76
2023/08/06 02:07:33;;;;;;;3.60;3.30;;;20.60;96.40;;;;;;4993387;28;20434;-76
2023/08/06 02:09:59;;;;;;;3.37;3.07;;;20.60;96.40;;;;;;4976956;28;20222;-76
2023/08/06 02:12:25;;;;;;;2.97;2.77;;;20.60;96.40;;;;;;4995805;28;20439;-76
2023/08/06 02:14:53;;;;;;;3.33;3.03;;;20.60;96.30;;;;;;4979421;28;20548;-76
2023/08/06 02:17:22;;;;;;;3.17;2.97;;;20.60;96.70;;;;;;4979748;28;20450;-76
2023/08/06 02:19:50;;;;;;;3.60;3.07;;;20.60;96.30;;;;;;5012746;28;20532;-76
2023/08/06 02:22:16;;;;;;;5.43;2.90;;;20.60;96.30;;;;;;4996219;28;20781;-76
2023/08/06 02:24:42;;;;;;;3.67;3.37;;;20.60;96.40;;;;;;5012320;28;20439;-76
2023/08/06 02:27:09;;;;;;;3.27;2.97;;;20.60;96.30;;;;;;4993225;28;20897;-76
2023/08/06 02:29:39;;;;;;;3.30;3.00;;;20.50;96.30;;;;;;5009567;28;20944;-76
2023/08/06 02:32:06;;;;;;;3.47;3.20;;;20.60;96.30;;;;;;4993226;28;20427;-76
2023/08/06 02:34:32;;;;;;;3.77;3.47;;;20.50;96.30;;;;;;4993097;28;20546;-75
2023/08/06 02:37:02;;;;;;;4.37;3.20;;;20.50;96.30;;;;;;4993231;28;20415;-76
2023/08/06 02:39:28;;;;;;;3.27;2.97;;;20.50;96.30;;;;;;4996452;28;20973;-76
2023/08/06 02:41:54;;;;;;;3.30;3.00;;;20.50;96.30;;;;;;5006520;28;20441;-76
2023/08/06 02:44:20;;;;;;;3.40;3.10;;;20.50;96.30;;;;;;4976794;28;20216;-76
2023/08/06 02:46:51;;;;;;;4.43;3.63;;;20.50;96.30;;;;;;4992831;28;20522;-76
2023/08/06 02:49:20;;;;;;;3.37;3.07;;;20.50;96.30;;;;;;5029509;28;20421;-75
2023/08/06 02:51:46;;;;;;;3.53;3.23;;;20.50;96.30;;;;;;5030379;28;20810;-76
2023/08/06 02:54:12;;;;;;;5.60;3.77;;;20.50;96.40;;;;;;4996194;28;20426;-76
2023/08/06 02:56:38;;;;;;;3.63;3.33;;;20.50;96.30;;;;;;5011779;28;20464;-76
2023/08/06 02:59:19;;;;;;;3.67;3.37;;;20.50;96.30;;;;;;4994152;28;20438;-76
2023/08/06 03:02:17;;;;;;;3.83;2.97;;;20.50;96.30;;;;;;5002845;28;20451;-76
2023/08/06 03:05:09;;;;;;;3.30;2.93;;;20.50;96.40;;;;;;5003910;28;20520;-76
2023/08/06 03:07:39;;;;;;;4.33;4.03;;;20.50;96.40;;;;;;4981437;28;20449;-76
2023/08/06 03:10:13;;;;;;;6.57;3.13;;;20.50;96.40;;;;;;5012079;28;20520;-76
2023/08/06 03:12:39;;;;;;;4.83;3.30;;;20.50;96.40;;;;;;4995392;28;20418;-76
2023/08/06 03:15:06;;;;;;;3.43;2.90;;;20.50;96.40;;;;;;5012069;28;20410;-76
2023/08/06 03:17:32;;;;;;;2.90;2.70;;;20.40;96.30;;;;;;4991687;28;20439;-76
2023/08/06 03:19:58;;;;;;;3.60;3.30;;;20.50;96.40;;;;;;4976278;28;20485;-76
2023/08/06 03:22:29;;;;;;;2.90;2.70;;;20.50;96.40;;;;;;4992084;28;20419;-76
2023/08/06 03:24:55;;;;;;;3.33;3.03;;;20.40;96.30;;;;;;4992188;28;20815;-76
2023/08/06 03:27:23;;;;;;;3.10;2.90;;;20.40;96.30;;;;;;5008476;28;20416;-76
2023/08/06 03:29:53;;;;;;;2.80;2.60;;;20.40;96.30;;;;;;4976172;28;20986;-76
2023/08/06 03:32:22;;;;;;;2.97;2.77;;;20.40;96.30;;;;;;5008212;28;20782;-76
2023/08/06 03:34:51;;;;;;;4.10;3.43;;;20.40;96.30;;;;;;4991810;28;20411;-76
2023/08/06 03:37:19;;;;;;;3.70;3.40;;;20.40;96.30;;;;;;4992615;28;20778;-76
2023/08/06 03:39:45;;;;;;;3.30;3.07;;;20.40;96.30;;;;;;5028069;28;20447;-77
2023/08/06 03:42:16;;;;;;;2.83;2.63;;;20.40;96.30;;;;;;4995000;28;20480;-76
2023/08/06 03:44:42;;;;;;;4.13;3.13;;;20.40;96.30;;;;;;5011202;28;21166;-76
2023/08/06 03:47:10;;;;;;;3.57;3.27;;;20.40;96.30;;;;;;4994615;28;20932;-74
2023/08/06 03:49:41;;;;;;;2.83;2.63;;;20.40;96.30;;;;;;4991202;28;20448;-76
2023/08/06 03:52:10;;;;;;;3.13;2.50;;;20.40;96.30;;;;;;5008077;28;20404;-76
2023/08/06 03:54:36;;;;;;;2.90;2.70;;;20.40;96.30;;;;;;5007940;28;20409;-76
2023/08/06 03:57:02;;;;;;;3.90;3.20;;;20.40;96.40;;;;;;5005601;28;20463;-76
2023/08/06 03:59:30;;;;;;;3.70;3.20;;;20.40;96.40;;;;;;4991966;28;20467;-76
2023/08/06 04:01:59;;;;;;;4.07;3.77;;;20.40;96.40;;;;;;4989237;28;20433;-76
2023/08/06 04:04:25;;;;;;;3.03;2.83;;;20.40;96.40;;;;;;5104968;22;20491;-78
2023/08/06 04:06:51;;;;;;;3.80;3.50;;;20.40;96.40;;;;;;4963845;28;20987;-78
2023/08/06 04:09:22;;;;;;;3.00;2.80;;;20.40;96.40;;;;;;4976644;28;20418;-77
2023/08/06 04:11:48;;;;;;;3.17;2.97;;;20.30;96.40;;;;;;4993781;28;20405;-76
2023/08/06 04:14:16;;;;;;;2.60;2.40;;;20.30;96.40;;;;;;4977236;28;20290;-76
2023/08/06 04:16:42;;;;;;;2.80;2.60;;;20.30;96.40;;;;;;4993637;28;20510;-77
2023/08/06 04:19:08;;;;;;;2.93;2.73;;;20.30;96.40;;;;;;4960297;28;20274;-76
2023/08/06 04:21:34;;;;;;;4.10;3.80;;;20.30;96.40;;;;;;4992638;28;20444;-77
2023/08/06 04:24:00;;;;;;;3.20;2.90;;;20.30;96.40;;;;;;4975056;28;20197;-76
2023/08/06 04:26:29;;;;;;;5.20;3.43;;;20.30;96.50;;;;;;4992590;28;20544;-77
2023/08/06 04:29:00;;;;;;;4.70;3.30;;;20.30;96.80;;;;;;4992426;28;20476;-77
2023/08/06 04:31:28;;;;;;;3.57;3.27;;;20.30;96.50;;;;;;4992868;28;20442;-78
2023/08/06 04:33:56;;;;;;;3.10;2.87;;;20.30;96.50;;;;;;4976305;28;20511;-78
2023/08/06 04:36:23;;;;;;;2.90;2.70;;;20.30;96.50;;;;;;4992968;28;20443;-77
2023/08/06 04:38:49;;;;;;;3.80;3.17;;;20.30;96.60;;;;;;4991715;28;20461;-77
2023/08/06 04:41:19;;;;;;;3.43;3.00;;;20.30;96.60;;;;;;4976582;28;20548;-78
2023/08/06 04:43:45;;;;;;;3.07;2.87;;;20.30;96.60;;;;;;4976908;28;20462;-77
2023/08/06 04:46:15;;;;;;;4.47;2.97;;;20.30;96.60;;;;;;4977189;28;20449;-77
2023/08/06 04:48:41;;;;;;;2.97;2.77;;;20.30;96.60;;;;;;4992477;28;21204;-77
2023/08/06 04:51:07;;;;;;;3.20;3.00;;;20.30;96.60;;;;;;5009832;28;20433;-77
2023/08/06 04:53:33;;;;;;;2.90;2.70;;;20.20;96.50;;;;;;4975294;28;20859;-77
2023/08/06 04:55:59;;;;;;;3.33;3.10;;;20.20;96.50;;;;;;4975485;28;20445;-76
2023/08/06 04:58:28;;;;;;;3.70;3.40;;;20.20;96.60;;;;;;5009479;28;20704;-77
2023/08/06 05:00:54;;;;;;;3.07;2.87;;;20.30;96.60;;;;;;4991340;28;20825;-77
2023/08/06 05:03:20;;;;;;;3.50;3.20;;;20.20;96.60;;;;;;4992510;28;20421;-76
2023/08/06 05:05:50;;;;;;;3.23;2.90;;;20.20;96.60;;;;;;4975405;28;20896;-76
2023/08/06 05:08:16;;;;;;;3.20;3.00;;;20.20;96.60;;;;;;4991435;28;20777;-77
2023/08/06 05:10:47;;;;;;;3.47;3.17;;;20.20;96.60;;;;;;4991815;28;20450;-77
2023/08/06 05:13:18;;;;;;;4.20;2.70;;;20.20;96.60;;;;;;5009456;28;21188;-78
2023/08/06 05:15:45;;;;;;;3.07;2.70;;;20.20;96.60;;;;;;5009208;28;20430;-77
2023/08/06 05:18:12;;;;;;;3.50;3.20;;;20.20;96.60;;;;;;4959159;28;20443;-76
2023/08/06 05:20:39;;;;;;;3.10;2.80;;;20.20;96.60;;;;;;4975480;28;20479;-76
2023/08/06 05:23:07;;;;;;;2.87;2.67;;;20.20;96.60;;;;;;4991379;28;20446;-77
2023/08/06 05:25:40;;;;;;;3.40;3.10;;;20.20;96.60;;;;;;4988401;28;20474;-77
2023/08/06 05:28:08;;;;;;;3.83;3.53;;;20.20;96.60;;;;;;4982403;28;20421;-76
2023/08/06 05:30:43;;;;;;;3.20;2.70;;;20.20;96.70;;;;;;4974876;28;20435;-77
2023/08/06 05:33:09;;;;;;;2.80;2.60;;;20.20;96.70;;;;;;5007768;28;20492;-77
2023/08/06 05:35:37;;;;;;;2.70;2.50;;;20.20;96.70;;;;;;4991101;28;20515;-78
2023/08/06 05:38:03;;;;;;;3.47;2.77;;;20.20;96.70;;;;;;5008421;28;20426;-78
2023/08/06 05:40:29;;;;;;;4.23;2.90;;;20.20;96.70;;;;;;4990887;28;20443;-76
2023/08/06 05:42:55;;;;;;;2.97;2.77;;;20.20;96.70;;;;;;4991046;28;20461;-78
2023/08/06 05:45:21;;;;;;;2.80;2.60;;;20.20;96.70;;;;;;4990254;28;20473;-77
2023/08/06 05:47:50;;;;;;;3.20;3.00;;;20.20;96.70;;;;;;4974783;28;20472;-76
2023/08/06 05:50:16;;;;;;;3.13;2.83;;;20.10;96.70;;;;;;4992465;28;20465;-76
2023/08/06 05:52:42;;;;;;;2.73;2.53;;;20.10;96.70;;;;;;4994713;28;20415;-76
2023/08/06 05:55:10;;;;;;;2.67;2.47;;;20.10;96.60;;;;;;5009894;28;20477;-76
2023/08/06 05:57:39;;;;;;;3.07;2.80;;;20.10;96.60;;;;;;4978009;28;20490;-77
2023/08/06 06:00:06;;;;;;;3.00;2.80;;;20.10;96.60;;;;;;5010723;28;20198;-78
2023/08/06 06:02:39;;;;;;;2.83;2.63;;;20.10;96.60;;;;;;5012243;28;20402;-77
2023/08/06 06:05:07;;;;;;;3.70;3.40;;;20.10;96.60;;;;;;4993894;28;20600;-77
2023/08/06 06:07:35;;;;;;;3.07;2.77;;;20.10;96.70;;;;;;5011876;28;20232;-76
2023/08/06 06:10:01;;;;;;;3.20;2.90;;;20.10;96.70;;;;;;4977707;28;20479;-77
2023/08/06 06:12:30;;;;;;;2.40;2.20;;;20.10;96.70;;;;;;5011811;28;20464;-77
2023/08/06 06:15:00;;;;;;;3.33;3.03;;;20.10;96.60;;;;;;5012354;28;20400;-76
2023/08/06 06:17:27;;;;;;;2.90;2.70;;;20.10;96.60;;;;;;4995640;28;20476;-76
2023/08/06 06:19:53;;;;;;;4.07;3.00;;;20.10;96.60;;;;;;4994067;28;21091;-77
2023/08/06 06:22:22;;;;;;;3.20;3.00;;;20.10;96.70;;;;;;5011928;28;20469;-77
2023/08/06 06:24:48;;;;;;;3.50;3.20;;;20.10;96.70;;;;;;4977853;28;21268;-77
2023/08/06 06:27:14;;;;;;;2.90;2.70;;;20.10;96.60;;;;;;4977375;28;20535;-77
2023/08/06 06:29:40;;;;;;;3.70;2.87;;;20.10;96.70;;;;;;4993896;28;20470;-78
2023/08/06 06:32:09;;;;;;;3.30;3.00;;;20.10;96.70;;;;;;4994614;28;20433;-77
2023/08/06 06:34:35;;;;;;;3.00;2.77;;;20.10;96.70;;;;;;4994578;28;20501;-78
2023/08/06 06:37:01;;;;;;;3.00;2.80;;;20.10;96.70;;;;;;4993611;28;20453;-76
2023/08/06 06:39:29;;;;;;;3.40;3.10;;;20.10;96.70;;;;;;4993750;28;20410;-76
2023/08/06 06:41:56;;;;;;;2.53;2.40;;;20.10;96.70;;;;;;5011284;28;20489;-77
2023/08/06 06:44:32;;;;;;;3.10;2.90;;;20.10;96.70;;;;;;4993841;28;20679;-77
2023/08/06 06:47:01;;;;;;;3.00;2.80;;;20.10;96.70;;;;;;4994189;28;20469;-77
2023/08/06 06:49:31;;;;;;;3.90;3.07;;;20.10;96.70;;;;;;4977151;28;20457;-77
2023/08/06 06:51:57;;;;;;;3.37;3.10;;;20.10;96.80;;;;;;4994042;28;20405;-77
2023/08/06 06:54:28;;;;;;;3.20;2.90;;;20.10;96.80;;;;;;4977821;28;20437;-77
2023/08/06 06:56:57;;;;;;;3.10;2.90;;;20.10;96.80;;;;;;4990231;28;20475;-77
2023/08/06 06:59:25;;;;;;;3.20;2.90;;;20.10;97.10;;;;;;4993118;28;20414;-77
2023/08/06 07:01:51;;;;;;;3.43;3.13;;;20.10;96.80;;;;;;4992348;28;20459;-77
2023/08/06 07:04:18;;;;;;;3.63;3.17;;;20.10;96.80;;;;;;4976985;28;20432;-78
2023/08/06 07:06:44;;;;;;;3.30;3.00;;;20.10;96.80;;;;;;4976352;28;20526;-78
2023/08/06 07:09:10;;;;;;;3.20;2.90;;;20.10;96.80;;;;;;4993138;28;21199;-77
2023/08/06 07:11:36;;;;;;;3.07;2.77;;;20.10;96.80;;;;;;4977236;28;20454;-78
2023/08/06 07:14:02;;;;;;;3.20;2.80;;;20.10;96.80;;;;;;5010790;28;20448;-78
2023/08/06 07:16:29;;;;;;;4.27;3.50;;;20.10;96.80;;;;;;4976699;28;20813;-77
2023/08/06 07:18:55;;;;;;;3.37;3.07;;;20.10;96.80;;;;;;5010576;28;20451;-76
2023/08/06 07:21:24;;;;;;;4.80;2.80;;;20.20;96.80;;;;;;4992554;28;21037;-77
2023/08/06 07:23:50;;;;;;;5.00;2.60;;;20.20;96.80;;;;;;4992902;28;20508;-78
2023/08/06 07:26:17;;;;;;;3.10;2.90;;;20.20;96.80;;;;;;4989227;28;20620;-77
2023/08/06 07:28:44;;;;;;;2.80;2.60;;;20.20;96.80;;;;;;4995154;28;20446;-77
2023/08/06 07:31:10;;;;;;;3.47;3.17;;;20.20;96.70;;;;;;4972399;28;20461;-77
2023/08/06 07:33:36;;;;;;;3.20;2.90;;;20.20;96.80;;;;;;4976493;28;20403;-78
2023/08/06 07:36:13;;;;;;;2.80;2.60;;;20.20;96.70;;;;;;4993940;28;20407;-77
2023/08/06 07:38:39;;;;;;;3.33;3.03;;;20.20;96.80;;;;;;4976977;28;20456;-78
2023/08/06 07:41:05;;;;;;;3.30;3.00;;;20.20;96.80;;;;;;4991365;28;20538;-77
2023/08/06 07:43:32;;;;;;;3.40;3.10;;;20.20;97.20;;;;;;4992060;28;20458;-77
2023/08/06 07:46:01;;;;;;;3.10;2.90;;;20.20;96.90;;;;;;5009951;28;20481;-77
2023/08/06 07:48:30;;;;;;;2.80;2.60;;;20.20;96.90;;;;;;4976380;28;20485;-78
2023/08/06 07:50:56;;;;;;;3.20;3.00;;;20.20;96.90;;;;;;5009327;28;20455;-77
2023/08/06 07:53:29;;;;;;;3.13;2.87;;;20.20;96.90;;;;;;4975779;28;20464;-78
2023/08/06 07:55:55;;;;;;;3.60;3.30;;;20.20;96.90;;;;;;4975055;28;20447;-77
2023/08/06 07:58:26;;;;;;;3.07;2.87;;;20.20;96.90;;;;;;4991679;28;20418;-77
2023/08/06 08:00:52;;;;;;;3.03;2.83;;;20.20;96.90;;;;;;5008017;28;20466;-78
2023/08/06 08:03:19;;;;;;;3.30;3.10;;;20.20;96.90;;;;;;4992327;28;20434;-78
2023/08/06 08:05:47;;;;;;;3.40;3.13;;;20.20;96.90;;;;;;4975602;28;20534;-77
2023/08/06 08:08:16;;;;;;;3.40;3.10;;;20.20;97.00;;;;;;4975718;28;20807;-76
2023/08/06 08:10:44;;;;;;;3.10;2.90;;;20.20;96.90;;;;;;4991419;28;20457;-76
2023/08/06 08:13:10;;;;;;;3.23;3.03;;;20.20;97.00;;;;;;4991727;28;20800;-77
2023/08/06 08:15:36;;;;;;;3.40;3.10;;;20.20;97.00;;;;;;4992216;28;20637;-76
2023/08/06 08:18:02;;;;;;;3.10;2.90;;;20.20;97.00;;;;;;4991748;28;20431;-77
2023/08/06 08:20:32;;;;;;;3.20;2.97;;;20.20;97.00;;;;;;5009456;28;20460;-76
2023/08/06 08:23:00;;;;;;;3.07;2.87;;;20.20;97.00;;;;;;4975336;28;20465;-77
2023/08/06 08:25:27;;;;;;;3.10;2.90;;;20.20;97.00;;;;;;4976113;28;20470;-77
2023/08/06 08:27:54;;;;;;;2.80;2.60;;;20.20;97.00;;;;;;4976099;28;20493;-76
2023/08/06 08:30:20;;;;;;;3.17;2.87;;;20.20;97.00;;;;;;4991386;28;20455;-77
2023/08/06 08:32:48;;;;;;;4.70;3.37;;;20.20;97.00;;;;;;4975653;28;20938;-76
2023/08/06 08:35:16;;;;;;;3.20;3.00;;;20.20;97.00;;;;;;4990999;28;20438;-78
2023/08/06 08:37:43;;;;;;;3.10;2.90;;;20.20;97.10;;;;;;4974865;28;20568;-78
2023/08/06 08:40:10;;;;;;;3.50;3.20;;;20.30;97.20;;;;;;4990958;28;20462;-77
2023/08/06 08:42:39;;;;;;;3.20;3.00;;;20.30;97.50;;;;;;4990804;28;20512;-77
2023/08/06 08:45:14;;;;;;;3.10;2.90;;;20.30;97.20;;;;;;4991533;28;20446;-77
2023/08/06 08:47:43;;;;;;;3.30;3.00;;;20.30;97.10;;;;;;4991285;28;20423;-77
2023/08/06 08:50:10;;;;;;;3.07;2.87;;;20.30;97.10;;;;;;4974532;28;21083;-77
2023/08/06 08:52:38;;;;;;;3.80;3.50;;;20.30;97.20;;;;;;4974645;28;21081;-76
2023/08/06 08:55:06;;;;;;;3.07;2.87;;;20.30;97.20;;;;;;4974969;28;21117;-77
2023/08/06 08:57:32;;;;;;;3.17;2.93;;;20.30;97.20;;;;;;5008043;28;20464;-78
2023/08/06 08:59:58;;;;;;;3.70;2.87;;;20.30;97.20;;;;;;5008266;28;20463;-76
2023/08/06 09:02:28;;;;;;;3.40;3.20;;;20.30;97.10;;;;;;4991231;28;20437;-77
2023/08/06 09:05:01;;;;;;;3.63;3.23;;;20.30;97.10;;;;;;4974972;28;20952;-78
2023/08/06 09:07:29;;;;;;;3.10;2.90;;;20.30;97.10;;;;;;5009640;28;20486;-77
2023/08/06 09:10:01;;;;;;;4.37;3.10;;;20.40;97.10;;;;;;4976128;28;20465;-77
2023/08/06 09:12:27;;;;;;;3.97;3.67;;;20.40;97.10;;;;;;4990866;28;20471;-77
2023/08/06 09:14:54;;;;;;;5.33;3.60;;;20.40;97.10;;;;;;4990800;28;20419;-77
2023/08/06 09:17:23;;;;;;;3.80;3.50;;;20.40;97.10;;;;;;5008863;28;20503;-77
2023/08/06 09:19:50;;;;;;;3.80;3.50;;;20.40;97.10;;;;;;4990578;28;20978;-77
2023/08/06 09:22:16;;;;;;;3.80;3.50;;;20.40;97.20;;;;;;4991158;28;20473;-77
2023/08/06 09:24:46;;;;;;;3.90;3.50;;;20.40;97.10;;;;;;5008906;28;20502;-78
2023/08/06 09:27:14;;;;;;;3.93;3.63;;;20.40;97.10;;;;;;4993494;28;20471;-78
2023/08/06 09:29:41;;;;;;;4.70;3.70;;;20.50;97.20;;;;;;5011480;28;20453;-78
2023/08/06 09:32:07;;;;;;;3.90;3.57;;;20.50;97.20;;;;;;4993907;28;20848;-78
2023/08/06 09:34:33;;;;;;;3.67;3.40;;;20.50;97.30;;;;;;4977877;28;20462;-77
2023/08/06 09:37:01;;;;;;;3.97;3.20;;;20.50;97.20;;;;;;4994401;28;20436;-76
2023/08/06 09:39:30;;;;;;;3.63;3.33;;;20.40;97.30;;;;;;4993988;28;20445;-78
2023/08/06 09:41:57;;;;;;;3.77;3.47;;;20.50;97.70;;;;;;4994135;28;20819;-76
2023/08/06 09:44:25;;;;;;;3.80;3.50;;;20.50;97.30;;;;;;4993464;28;20914;-77
2023/08/06 09:46:57;;;;;;;4.07;3.23;;;20.50;97.40;;;;;;4994033;28;20550;-77
2023/08/06 09:49:33;;;;;;;3.77;3.47;;;20.50;97.40;;;;;;4993952;28;20921;-76
2023/08/06 09:52:00;;;;;;;4.40;3.73;;;20.40;97.30;;;;;;4994409;28;20871;-77
2023/08/06 09:54:30;;;;;;;4.60;3.20;;;20.50;97.40;;;;;;4978008;28;20427;-76
2023/08/06 09:56:56;;;;;;;3.60;3.30;;;20.50;97.30;;;;;;5011536;28;20441;-77
2023/08/06 09:59:23;;;;;;;3.93;3.63;;;20.50;97.30;;;;;;4994686;28;20451;-78
2023/08/06 10:01:53;;;;;;;3.50;3.20;;;20.50;97.40;;;;;;4994296;28;20435;-77
2023/08/06 10:04:20;;;;;;;3.50;3.13;;;20.50;97.40;;;;;;4994006;28;20448;-77
2023/08/06 10:06:49;;;;;;;4.33;3.30;;;20.50;97.40;;;;;;5011459;28;20479;-77
2023/08/06 10:09:15;;;;;;;3.93;3.53;;;20.50;97.30;;;;;;4977276;28;20418;-76
2023/08/06 10:11:49;;;;;;;3.63;3.43;;;20.50;97.40;;;;;;4977074;28;20471;-78
2023/08/06 10:14:26;;;;;;;3.60;3.30;;;20.50;97.60;;;;;;4977100;28;20425;-78
2023/08/06 10:16:59;;;;;;;4.00;3.70;;;20.50;97.80;;;;;;4990133;28;20456;-78
2023/08/06 10:19:26;;;;;;;3.80;3.50;;;20.50;97.70;;;;;;4969160;28;20421;-78
2023/08/06 10:22:09;;;;;;;4.00;3.53;;;20.50;97.80;;;;;;4993443;28;20410;-78
2023/08/06 10:24:47;;;;;;;4.13;3.47;;;20.50;97.80;;;;;;4992504;28;20618;-78
2023/08/06 10:27:13;;;;;;;3.50;3.20;;;20.50;97.80;;;;;;4964341;28;20467;-78
2023/08/06 10:29:41;;;;;;;4.60;3.60;;;20.50;97.80;;;;;;4987259;28;20515;-78
2023/08/06 10:32:07;;;;;;;4.70;4.10;;;20.50;97.80;;;;;;4993524;28;20423;-77
2023/08/06 10:34:57;;;;;;;3.77;3.47;;;20.50;97.80;;;;;;4977308;28;20423;-78
2023/08/06 10:37:24;;;;;;;4.27;3.97;;;20.40;97.70;;;;;;4976231;28;20519;-77
2023/08/06 10:39:51;;;;;;;5.23;3.57;;;20.50;97.90;;;;;;4994067;28;20543;-78
2023/08/06 10:42:22;;;;;;;5.60;3.90;;;20.50;97.90;;;;;;4993544;28;20451;-78
2023/08/06 10:45:13;;;;;;;6.40;3.60;;;20.50;98.00;;;;;;4993269;28;20498;-78
2023/08/06 10:47:40;;;;;;;4.27;2.87;;;20.50;98.10;;;;;;4993913;28;20916;-76
2023/08/06 10:50:13;;;;;;;3.10;2.90;;;20.50;98.10;;;;;;5009706;28;20449;-78
2023/08/06 10:52:39;;;;;;;3.50;3.10;;;20.50;98.10;;;;;;4993272;28;20426;-76
2023/08/06 10:55:09;;;;;;;3.40;3.10;;;20.50;98.20;;;;;;4977611;28;20569;-78
2023/08/06 10:57:35;;;;;;;4.20;3.00;;;20.40;98.20;;;;;;4990013;28;20533;-77
2023/08/06 11:00:02;;;;;;;3.73;3.43;;;20.40;98.20;;;;;;4972316;28;20969;-77
2023/08/06 11:02:34;;;;;;;3.23;2.90;;;20.40;98.20;;;;;;5010797;28;20417;-77
2023/08/06 11:05:08;;;;;;;3.33;3.03;;;20.40;98.20;;;;;;4992956;28;20446;-77
2023/08/06 11:07:35;;;;;;;2.93;2.73;;;20.40;98.20;;;;;;4992241;28;20494;-78
2023/08/06 11:10:05;;;;;;;3.50;2.80;;;20.40;98.20;;;;;;5010344;28;20479;-78
2023/08/06 11:12:32;;;;;;;3.00;2.70;;;20.40;98.10;;;;;;5010868;28;20974;-77
2023/08/06 11:14:59;;;;;;;2.70;2.23;;;20.40;98.20;;;;;;5010832;28;20426;-77
2023/08/06 11:17:29;;;;;;;3.63;2.50;;;20.40;98.20;;;;;;4993545;28;20419;-77
2023/08/06 11:19:55;;;;;;;3.20;3.00;;;20.40;98.40;;;;;;5010159;28;20513;-77
2023/08/06 11:22:26;;;;;;;6.00;2.93;;;20.40;98.30;;;;;;5010449;28;20403;-77
2023/08/06 11:24:54;;;;;;;2.60;2.40;;;20.30;98.30;;;;;;4991281;28;20465;-77
2023/08/06 11:27:20;;;;;;;2.40;2.20;;;20.30;98.20;;;;;;4970577;28;20537;-77
2023/08/06 11:29:49;;;;;;;2.23;2.03;;;20.30;98.30;;;;;;4989477;28;20455;-77
2023/08/06 11:32:15;;;;;;;2.50;2.40;;;20.30;98.30;;;;;;5008400;28;20459;-78
2023/08/06 11:34:45;;;;;;;2.33;2.20;;;20.30;98.30;;;;;;4992308;28;20447;-78
2023/08/06 11:37:11;;;;;;;2.70;2.40;;;20.30;98.30;;;;;;5010551;28;20638;-78
2023/08/06 11:39:46;;;;;;;2.80;2.60;;;20.30;98.30;;;;;;4992511;28;20524;-77
2023/08/06 11:42:15;;;;;;;2.80;2.60;;;20.30;98.30;;;;;;4976638;28;20589;-76
2023/08/06 11:44:47;;;;;;;2.57;2.40;;;20.30;98.30;;;;;;4976997;28;20449;-76
2023/08/06 11:47:17;;;;;;;2.33;2.20;;;20.30;98.40;;;;;;4992035;28;20474;-77
2023/08/06 11:49:49;;;;;;;3.27;2.97;;;20.30;98.30;;;;;;4992522;28;20859;-76
2023/08/06 11:52:25;;;;;;;2.70;2.47;;;20.30;98.40;;;;;;4992250;28;20426;-77
2023/08/06 11:55:07;;;;;;;2.70;2.50;;;20.30;98.40;;;;;;4991767;28;20505;-76
2023/08/06 11:57:37;;;;;;;3.00;2.57;;;20.20;98.30;;;;;;4975489;28;20961;-76
2023/08/06 12:00:12;;;;;;;3.03;2.83;;;20.20;98.40;;;;;;5009216;28;20787;-77
2023/08/06 12:02:43;;;;;;;2.83;2.63;;;20.20;98.40;;;;;;4976034;28;20429;-77
2023/08/06 12:05:13;;;;;;;3.17;2.97;;;20.20;98.40;;;;;;4975690;28;20466;-77
2023/08/06 12:07:44;;;;;;;2.93;2.67;;;20.20;98.40;;;;;;4991595;28;20494;-78
2023/08/06 12:10:10;;;;;;;2.57;2.37;;;20.20;98.50;;;;;;4991220;28;20433;-76
2023/08/06 12:12:39;;;;;;;2.60;2.40;;;20.20;98.50;;;;;;5009731;28;20890;-76
2023/08/06 12:15:06;;;;;;;2.97;2.77;;;20.20;98.50;;;;;;5063427;23;20494;-76
2023/08/06 12:17:32;;;;;;;3.20;2.90;;;20.20;98.50;;;;;;4980231;28;20443;-75
2023/08/06 12:19:59;;;;;;;2.67;2.47;;;20.20;98.50;;;;;;4939597;28;20541;-76
2023/08/06 12:22:25;;;;;;;2.97;2.60;;;20.20;98.60;;;;;;4989767;28;20448;-75
2023/08/06 12:24:51;;;;;;;2.50;2.30;;;20.20;98.60;;;;;;4989495;28;21100;-75
2023/08/06 12:27:17;;;;;;;2.53;2.33;;;20.20;98.60;;;;;;4990065;28;20447;-75
2023/08/06 12:29:48;;;;;;;2.93;2.73;;;20.20;98.60;;;;;;4990640;28;21043;-76
2023/08/06 12:32:14;;;;;;;2.63;2.43;;;20.20;98.60;;;;;;5006249;28;20451;-76
2023/08/06 12:34:45;;;;;;;2.70;2.50;;;20.20;98.60;;;;;;4974250;28;21073;-76
2023/08/06 12:37:11;;;;;;;3.00;2.80;;;20.20;98.60;;;;;;4990211;28;20519;-74
2023/08/06 12:39:40;;;;;;;2.97;2.77;;;20.20;99.00;;;;;;4990236;28;20448;-76
2023/08/06 12:42:06;;;;;;;2.97;2.77;;;20.20;98.60;;;;;;4974306;28;20488;-76
2023/08/06 12:44:34;;;;;;;2.70;2.50;;;20.20;98.70;;;;;;5008025;28;20451;-75
2023/08/06 12:47:03;;;;;;;2.97;2.77;;;20.20;98.80;;;;;;4990736;28;20504;-76
2023/08/06 12:49:32;;;;;;;2.87;2.67;;;20.20;98.70;;;;;;5007930;28;20466;-75
2023/08/06 12:52:00;;;;;;;2.77;2.50;;;20.20;98.70;;;;;;4973251;28;20545;-76
2023/08/06 12:54:27;;;;;;;2.67;2.47;;;20.20;98.80;;;;;;4973417;28;20455;-74